»·PEaware :: N660WC KCRQ-KSNA

N660WC :: KCRQ-KSNA

FLIGHT INFORMATION

Flight Status: Arrived
Operator: Privately registered:
United States
More flights under this callsign
Pilot: John H. (7647)
Aircraft: CESSNA T210 TURBO CENTURION
(T210)
More flights by this aircraft type
Origin: KCRQ McClellan-Palomar
United States
Destination: KSNA John Wayne-Orange Co
United States
More flights between these airports :: More routes between these airports
Route: +OCN V23 SLI
File this flight plan on PilotEdge
Remarks: TEC route SANP3
Altitude:
(Current/Filed)
6,000ft
Speed:
(Current/Filed)
160kts
Departed: 01-Sep-18 01:34 PM
Arrived: 01-Sep-18 02:08 PM
Distance/Time
Traveled:
44nm/0:34
Distance/Time
To Go:
Arrived

Flight Plot

Page will automatically refresh every two minutes.


Map Options




Map Legend


Flown Route
Filed Route
Departure Airport
Arrival Airport
Navaid (VOR, NDB)
Fix

Horizontal Profiles

Position Reports

Time Latitude Longitude Heading Altitude Ground
Speed
01-Sep-18 13:06 33.129398 -117.279936 112 319ft 0kts
01-Sep-18 13:07 33.129398 -117.279936 112 319ft 0kts
01-Sep-18 13:08 33.129398 -117.279936 112 319ft 0kts
01-Sep-18 13:08 33.129398 -117.279936 112 319ft 0kts
01-Sep-18 13:15 33.130043 -117.276866 167 319ft 0kts
01-Sep-18 13:16 33.130043 -117.276866 167 319ft 0kts
01-Sep-18 13:17 33.130043 -117.276866 167 319ft 0kts
01-Sep-18 13:18 33.130043 -117.276866 167 319ft 0kts
01-Sep-18 13:19 33.130043 -117.276866 167 319ft 0kts
01-Sep-18 13:20 33.130043 -117.276866 167 319ft 0kts
01-Sep-18 13:21 33.130043 -117.276866 167 319ft 0kts
01-Sep-18 13:22 33.130043 -117.276866 167 319ft 0kts
01-Sep-18 13:23 33.130043 -117.276866 167 319ft 0kts
01-Sep-18 13:24 33.130043 -117.276866 167 319ft 0kts
01-Sep-18 13:25 33.130043 -117.276866 167 319ft 0kts
01-Sep-18 13:26 33.130043 -117.276866 167 319ft 0kts
01-Sep-18 13:27 33.129802 -117.276793 155 319ft 3kts
01-Sep-18 13:28 33.129880 -117.275224 78 319ft 10kts
01-Sep-18 13:29 33.130193 -117.272497 161 317ft 0kts
01-Sep-18 13:30 33.130193 -117.272497 161 317ft 0kts
01-Sep-18 13:31 33.130193 -117.272497 161 317ft 0kts
01-Sep-18 13:32 33.130193 -117.272497 161 317ft 0kts
01-Sep-18 13:33 33.130193 -117.272497 161 317ft 0kts
01-Sep-18 13:34 33.129402 -117.272787 248 317ft 19kts
01-Sep-18 13:35 33.127227 -117.299657 258 778ft 102kts
01-Sep-18 13:36 33.123504 -117.336890 255 1434ft 125kts
01-Sep-18 13:37 33.116667 -117.375421 254 2346ft 112kts
01-Sep-18 13:38 33.110869 -117.408954 254 3477ft 94kts
01-Sep-18 13:39 33.108003 -117.436391 303 4606ft 83kts
01-Sep-18 13:40 33.129774 -117.444990 340 5440ft 86kts
01-Sep-18 13:41 33.156089 -117.448196 355 5966ft 113kts
01-Sep-18 13:42 33.194162 -117.444470 2 5973ft 157kts
01-Sep-18 13:43 33.238976 -117.440496 3 5995ft 165kts
01-Sep-18 13:44 33.279322 -117.455320 310 5995ft 163kts
01-Sep-18 13:45 33.310376 -117.494862 311 6003ft 164kts
01-Sep-18 13:46 33.337048 -117.538148 296 6009ft 162kts
01-Sep-18 13:47 33.365133 -117.580225 327 6002ft 166kts
01-Sep-18 13:48 33.402567 -117.611676 319 6002ft 165kts
01-Sep-18 13:49 33.429303 -117.651257 295 5977ft 161kts
01-Sep-18 13:50 33.453414 -117.693239 307 5978ft 164kts
01-Sep-18 13:51 33.486063 -117.731731 342 5961ft 169kts
01-Sep-18 13:52 33.531447 -117.731598 0 5972ft 170kts
01-Sep-18 13:53 33.578401 -117.729507 359 5984ft 171kts
01-Sep-18 13:54 33.625558 -117.726677 0 5781ft 164kts
01-Sep-18 13:55 33.667532 -117.722780 0 4771ft 146kts
01-Sep-18 13:56 33.708257 -117.719014 359 3975ft 139kts
01-Sep-18 13:57 33.744465 -117.715327 0 3978ft 131kts
01-Sep-18 13:58 33.783375 -117.711799 0 3981ft 151kts
01-Sep-18 13:59 33.825105 -117.708404 359 3976ft 156kts
01-Sep-18 14:00 33.866895 -117.710748 310 3979ft 151kts
01-Sep-18 14:01 33.854578 -117.751756 233 3010ft 135kts
01-Sep-18 14:02 33.826679 -117.772574 211 2965ft 106kts
01-Sep-18 14:03 33.801604 -117.788676 211 2699ft 99kts
01-Sep-18 14:04 33.777103 -117.804404 209 2220ft 107kts
01-Sep-18 14:05 33.754058 -117.819065 208 1692ft 110kts
01-Sep-18 14:06 33.727985 -117.835584 207 1098ft 102kts
01-Sep-18 14:07 33.706948 -117.848953 207 635ft 75kts
01-Sep-18 14:08 33.689663 -117.859961 204 265ft 67kts
01-Sep-18 14:09 33.678024 -117.868062 282 60ft 17kts
01-Sep-18 14:10 33.678087 -117.868350 286 60ft 0kts
01-Sep-18 14:11 33.675942 -117.870814 293 60ft 10kts
01-Sep-18 14:12 33.675752 -117.871215 197 60ft 0kts
01-Sep-18 14:13 33.675752 -117.871215 197 60ft 0kts
01-Sep-18 14:14 33.675752 -117.871215 197 60ft 0kts
01-Sep-18 14:15 33.675752 -117.871215 197 60ft 0kts
01-Sep-18 14:16 33.675752 -117.871215 197 60ft 0kts
01-Sep-18 14:17 33.675752 -117.871215 197 60ft 0kts
01-Sep-18 14:18 33.675752 -117.871215 197 60ft 0kts
01-Sep-18 14:19 33.675752 -117.871215 197 60ft 0kts
01-Sep-18 14:20 33.675752 -117.871215 197 60ft 0kts
01-Sep-18 14:21 33.675752 -117.871215 197 60ft 0kts
01-Sep-18 14:22 33.675752 -117.871215 197 60ft 0kts
01-Sep-18 14:23 33.675752 -117.871215 197 60ft 0kts

Navigation Log

Ident Type
1. KCRQ Airport
2. OCN Navaid
3. KELPS Fix
4. DANAH Fix
5. KRAUZ Fix
6. BALBO Fix
7. MIDDS Fix
8. SLI Navaid
9. KSNA Airport